Ana Sayfa
METAR-TAF:

METAR-TAF

Havaalanları :

Sibu, Malezya

Enlem: 02-20N, Boylam: 111-50E, yükseklik: 8 m

Güncel hava durumu gözlemi

Rapor saat 12:00 UTC de 42 dakika önce yapıldı.
Rüzgar kuzey/kuzeybatıdan 3 kt
Sıcaklık 28°C
Nem 84%
Basınç 1007 hPa
Görüş mesafesi 10 km veya daha fazla
1800 ft yükseklikte parçalı bulutlu
15000 ft yükseklikte parçalı çok bulutlu

METAR: WBGS 191200Z 34003KT 9999 SCT018 BKN150 28/25 Q1007

Saat: 20:42 (12:42 UTC)

Tahmin

Rapor saat 11:00 UTC de 1 saat ve 42 dakika önce yapıldı.
Ayın 19'si saat 12 UTC'den ayın 20'si saat 12 UTC'ye kadar geçerli Tahmin
Rüzgar değişken yönden 3 kt
Görüş mesafesi 10 km veya daha fazla
1800 ft yükseklikte parçalı bulutlu

TAF: WBGS 191100Z 1912/2012 VRB03KT 9999 SCT018

4.000'den fazla havaalanı için hava durumu gözlemleri ve tahminleri (METAR ve TAF raporları).

Kullanılabilir istasyonlar harita üzerinde sarı ve kırmızı noktalarla gösterilir.

İstasyonun adını görmek için fareyi noktanın üzerinde gezdirin.

Sonrasında hava gözlem ve tahminlerini görmek için tıklayın.

Haritayı değiştirmek için: yaklaştırmak için siyah artı işaretli yeşil düğmeye ve uzaklaştırmak için de eksi işaretli düğmeye hızla tıklayın; bitişik haritalar için yeşil okları kullanın.


METAR-TAF: